sensor_id;sensor_type;location;lat;lon;timestamp;P1;durP1;ratioP1;P2;durP2;ratioP2
20122;SDS011;10222;50.848;4.336;2022-08-01T00:02:21;5.87;;;1.70;;
20122;SDS011;10222;50.848;4.336;2022-08-01T00:04:47;4.07;;;1.20;;
20122;SDS011;10222;50.848;4.336;2022-08-01T00:07:13;2.22;;;1.38;;
20122;SDS011;10222;50.848;4.336;2022-08-01T00:09:39;4.20;;;1.40;;
20122;SDS011;10222;50.848;4.336;2022-08-01T00:12:05;3.17;;;1.60;;
20122;SDS011;10222;50.848;4.336;2022-08-01T00:14:31;4.40;;;1.63;;
20122;SDS011;10222;50.848;4.336;2022-08-01T00:16:57;4.83;;;2.10;;
20122;SDS011;10222;50.848;4.336;2022-08-01T00:19:23;3.87;;;1.90;;
20122;SDS011;10222;50.848;4.336;2022-08-01T00:21:49;4.57;;;2.07;;
20122;SDS011;10222;50.848;4.336;2022-08-01T00:24:15;2.93;;;1.80;;
20122;SDS011;10222;50.848;4.336;2022-08-01T00:26:41;4.57;;;2.03;;
20122;SDS011;10222;50.848;4.336;2022-08-01T00:29:07;4.10;;;2.37;;
20122;SDS011;10222;50.848;4.336;2022-08-01T00:31:33;4.73;;;2.40;;
20122;SDS011;10222;50.848;4.336;2022-08-01T00:33:59;7.57;;;2.27;;
20122;SDS011;10222;50.848;4.336;2022-08-01T00:36:25;4.07;;;2.10;;
20122;SDS011;10222;50.848;4.336;2022-08-01T00:38:51;3.85;;;2.05;;
20122;SDS011;10222;50.848;4.336;2022-08-01T00:41:17;4.80;;;2.27;;
20122;SDS011;10222;50.848;4.336;2022-08-01T00:43:44;5.13;;;2.40;;
20122;SDS011;10222;50.848;4.336;2022-08-01T00:46:10;6.33;;;2.17;;
20122;SDS011;10222;50.848;4.336;2022-08-01T00:48:36;5.97;;;2.10;;
20122;SDS011;10222;50.848;4.336;2022-08-01T00:51:03;6.90;;;2.65;;
20122;SDS011;10222;50.848;4.336;2022-08-01T00:53:30;4.00;;;2.33;;
20122;SDS011;10222;50.848;4.336;2022-08-01T00:55:56;3.65;;;2.33;;
20122;SDS011;10222;50.848;4.336;2022-08-01T00:58:22;3.63;;;2.20;;
20122;SDS011;10222;50.848;4.336;2022-08-01T01:00:48;7.57;;;2.67;;
20122;SDS011;10222;50.848;4.336;2022-08-01T01:03:14;3.37;;;1.93;;
20122;SDS011;10222;50.848;4.336;2022-08-01T01:05:45;4.13;;;2.17;;
20122;SDS011;10222;50.848;4.336;2022-08-01T01:08:16;2.90;;;2.00;;
20122;SDS011;10222;50.848;4.336;2022-08-01T01:14:09;4.47;;;2.42;;
20122;SDS011;10222;50.848;4.336;2022-08-01T01:16:36;6.50;;;2.30;;
20122;SDS011;10222;50.848;4.336;2022-08-01T01:19:02;6.93;;;3.37;;
20122;SDS011;10222;50.848;4.336;2022-08-01T01:29:11;6.00;;;3.37;;
20122;SDS011;10222;50.848;4.336;2022-08-01T01:31:41;8.20;;;3.50;;
20122;SDS011;10222;50.848;4.336;2022-08-01T01:34:07;8.40;;;5.27;;
20122;SDS011;10222;50.848;4.336;2022-08-01T01:36:35;13.33;;;6.23;;
20122;SDS011;10222;50.848;4.336;2022-08-01T01:39:01;11.63;;;6.20;;
20122;SDS011;10222;50.848;4.336;2022-08-01T01:41:27;11.90;;;5.83;;
20122;SDS011;10222;50.848;4.336;2022-08-01T01:43:54;10.80;;;5.68;;
20122;SDS011;10222;50.848;4.336;2022-08-01T01:46:22;11.30;;;5.70;;
20122;SDS011;10222;50.848;4.336;2022-08-01T01:48:49;11.60;;;5.67;;
20122;SDS011;10222;50.848;4.336;2022-08-01T01:51:17;12.43;;;6.50;;
20122;SDS011;10222;50.848;4.336;2022-08-01T01:53:43;14.63;;;7.10;;
20122;SDS011;10222;50.848;4.336;2022-08-01T01:56:10;9.27;;;5.83;;
20122;SDS011;10222;50.848;4.336;2022-08-01T01:58:37;14.23;;;7.07;;
20122;SDS011;10222;50.848;4.336;2022-08-01T02:01:04;12.25;;;5.95;;
20122;SDS011;10222;50.848;4.336;2022-08-01T02:03:31;10.97;;;5.77;;
20122;SDS011;10222;50.848;4.336;2022-08-01T02:05:58;11.93;;;5.25;;
20122;SDS011;10222;50.848;4.336;2022-08-01T02:08:24;8.20;;;5.57;;
20122;SDS011;10222;50.848;4.336;2022-08-01T02:10:51;9.70;;;5.20;;
20122;SDS011;10222;50.848;4.336;2022-08-01T02:13:38;12.07;;;6.07;;
20122;SDS011;10222;50.848;4.336;2022-08-01T02:16:05;14.05;;;6.68;;
20122;SDS011;10222;50.848;4.336;2022-08-01T02:18:33;12.03;;;6.67;;
20122;SDS011;10222;50.848;4.336;2022-08-01T02:21:00;13.27;;;6.60;;
20122;SDS011;10222;50.848;4.336;2022-08-01T02:23:30;11.33;;;6.10;;
20122;SDS011;10222;50.848;4.336;2022-08-01T02:25:57;14.67;;;6.20;;
20122;SDS011;10222;50.848;4.336;2022-08-01T02:28:25;12.80;;;6.30;;
20122;SDS011;10222;50.848;4.336;2022-08-01T02:30:53;12.47;;;6.03;;
20122;SDS011;10222;50.848;4.336;2022-08-01T02:33:24;14.20;;;7.33;;
20122;SDS011;10222;50.848;4.336;2022-08-01T02:35:52;13.93;;;6.47;;
20122;SDS011;10222;50.848;4.336;2022-08-01T02:38:22;14.00;;;7.17;;
20122;SDS011;10222;50.848;4.336;2022-08-01T02:40:49;11.60;;;6.90;;
20122;SDS011;10222;50.848;4.336;2022-08-01T02:43:18;12.73;;;6.77;;
20122;SDS011;10222;50.848;4.336;2022-08-01T02:45:45;12.47;;;7.07;;
20122;SDS011;10222;50.848;4.336;2022-08-01T02:48:12;18.43;;;7.17;;
20122;SDS011;10222;50.848;4.336;2022-08-01T02:50:42;13.77;;;6.60;;
20122;SDS011;10222;50.848;4.336;2022-08-01T02:53:08;15.35;;;7.30;;
20122;SDS011;10222;50.848;4.336;2022-08-01T02:55:35;15.07;;;7.17;;
20122;SDS011;10222;50.848;4.336;2022-08-01T02:58:02;15.40;;;7.40;;
20122;SDS011;10222;50.848;4.336;2022-08-01T03:00:29;17.00;;;7.18;;
20122;SDS011;10222;50.848;4.336;2022-08-01T03:02:56;11.40;;;6.57;;
20122;SDS011;10222;50.848;4.336;2022-08-01T03:05:23;12.83;;;6.40;;
20122;SDS011;10222;50.848;4.336;2022-08-01T03:07:49;14.53;;;6.80;;
20122;SDS011;10222;50.848;4.336;2022-08-01T03:10:17;12.83;;;6.60;;
20122;SDS011;10222;50.848;4.336;2022-08-01T03:12:43;12.90;;;6.77;;
20122;SDS011;10222;50.848;4.336;2022-08-01T03:15:11;13.80;;;6.47;;
20122;SDS011;10222;50.848;4.336;2022-08-01T03:17:37;10.87;;;5.70;;
20122;SDS011;10222;50.848;4.336;2022-08-01T03:20:06;18.03;;;7.20;;
20122;SDS011;10222;50.848;4.336;2022-08-01T03:22:33;15.43;;;6.93;;
20122;SDS011;10222;50.848;4.336;2022-08-01T03:25:00;13.83;;;6.97;;
20122;SDS011;10222;50.848;4.336;2022-08-01T03:27:27;13.10;;;7.82;;
20122;SDS011;10222;50.848;4.336;2022-08-01T03:29:54;16.03;;;8.27;;
20122;SDS011;10222;50.848;4.336;2022-08-01T03:32:21;17.57;;;9.00;;
20122;SDS011;10222;50.848;4.336;2022-08-01T03:34:47;18.17;;;8.80;;
20122;SDS011;10222;50.848;4.336;2022-08-01T03:39:44;14.97;;;8.60;;
20122;SDS011;10222;50.848;4.336;2022-08-01T03:42:22;17.23;;;9.07;;
20122;SDS011;10222;50.848;4.336;2022-08-01T03:44:54;16.63;;;10.05;;
20122;SDS011;10222;50.848;4.336;2022-08-01T03:47:21;15.50;;;9.52;;
20122;SDS011;10222;50.848;4.336;2022-08-01T03:49:47;17.17;;;9.00;;
20122;SDS011;10222;50.848;4.336;2022-08-01T03:52:14;19.13;;;9.53;;
20122;SDS011;10222;50.848;4.336;2022-08-01T03:54:42;15.63;;;9.70;;
20122;SDS011;10222;50.848;4.336;2022-08-01T03:57:09;17.93;;;10.03;;
20122;SDS011;10222;50.848;4.336;2022-08-01T03:59:35;12.97;;;8.83;;
20122;SDS011;10222;50.848;4.336;2022-08-01T04:02:03;20.23;;;9.63;;
20122;SDS011;10222;50.848;4.336;2022-08-01T04:04:30;12.73;;;9.27;;
20122;SDS011;10222;50.848;4.336;2022-08-01T04:06:57;17.70;;;9.97;;
20122;SDS011;10222;50.848;4.336;2022-08-01T04:09:29;17.67;;;9.37;;
20122;SDS011;10222;50.848;4.336;2022-08-01T04:11:55;17.80;;;10.23;;
20122;SDS011;10222;50.848;4.336;2022-08-01T04:14:21;17.30;;;10.03;;
20122;SDS011;10222;50.848;4.336;2022-08-01T04:16:47;19.23;;;10.70;;
20122;SDS011;10222;50.848;4.336;2022-08-01T04:19:13;19.27;;;11.07;;
20122;SDS011;10222;50.848;4.336;2022-08-01T04:21:39;21.17;;;10.50;;
20122;SDS011;10222;50.848;4.336;2022-08-01T04:24:16;13.87;;;9.87;;
20122;SDS011;10222;50.848;4.336;2022-08-01T04:26:43;16.27;;;9.97;;
20122;SDS011;10222;50.848;4.336;2022-08-01T04:29:09;20.03;;;10.97;;
20122;SDS011;10222;50.848;4.336;2022-08-01T04:31:36;17.40;;;10.47;;
20122;SDS011;10222;50.848;4.336;2022-08-01T04:34:03;15.10;;;9.30;;
20122;SDS011;10222;50.848;4.336;2022-08-01T04:36:30;14.93;;;9.50;;
20122;SDS011;10222;50.848;4.336;2022-08-01T04:38:58;18.53;;;10.10;;
20122;SDS011;10222;50.848;4.336;2022-08-01T04:41:25;17.57;;;11.23;;
20122;SDS011;10222;50.848;4.336;2022-08-01T04:43:51;19.20;;;11.53;;
20122;SDS011;10222;50.848;4.336;2022-08-01T04:46:19;20.90;;;12.00;;
20122;SDS011;10222;50.848;4.336;2022-08-01T04:48:45;17.10;;;11.43;;
20122;SDS011;10222;50.848;4.336;2022-08-01T04:51:12;20.77;;;12.37;;
20122;SDS011;10222;50.848;4.336;2022-08-01T04:53:41;16.03;;;11.03;;
20122;SDS011;10222;50.848;4.336;2022-08-01T04:56:07;19.33;;;12.17;;
20122;SDS011;10222;50.848;4.336;2022-08-01T04:58:33;18.20;;;10.93;;
20122;SDS011;10222;50.848;4.336;2022-08-01T05:01:00;22.33;;;12.60;;
20122;SDS011;10222;50.848;4.336;2022-08-01T05:03:26;14.37;;;10.37;;
20122;SDS011;10222;50.848;4.336;2022-08-01T05:05:52;16.83;;;10.88;;
20122;SDS011;10222;50.848;4.336;2022-08-01T05:08:18;19.73;;;10.80;;
20122;SDS011;10222;50.848;4.336;2022-08-01T05:10:44;19.10;;;11.10;;
20122;SDS011;10222;50.848;4.336;2022-08-01T05:13:10;18.48;;;10.05;;
20122;SDS011;10222;50.848;4.336;2022-08-01T05:15:36;17.07;;;10.40;;
20122;SDS011;10222;50.848;4.336;2022-08-01T05:18:02;16.70;;;11.77;;
20122;SDS011;10222;50.848;4.336;2022-08-01T05:20:28;19.40;;;11.80;;
20122;SDS011;10222;50.848;4.336;2022-08-01T05:22:54;17.10;;;11.13;;
20122;SDS011;10222;50.848;4.336;2022-08-01T05:25:20;15.60;;;9.57;;
20122;SDS011;10222;50.848;4.336;2022-08-01T05:27:46;15.50;;;10.18;;
20122;SDS011;10222;50.848;4.336;2022-08-01T05:30:12;13.90;;;9.90;;
20122;SDS011;10222;50.848;4.336;2022-08-01T05:32:38;11.70;;;8.67;;
20122;SDS011;10222;50.848;4.336;2022-08-01T05:35:05;13.73;;;8.90;;
20122;SDS011;10222;50.848;4.336;2022-08-01T05:37:32;14.10;;;8.53;;
20122;SDS011;10222;50.848;4.336;2022-08-01T05:39:58;12.80;;;8.80;;
20122;SDS011;10222;50.848;4.336;2022-08-01T05:42:24;13.20;;;7.35;;
20122;SDS011;10222;50.848;4.336;2022-08-01T05:44:50;10.30;;;7.63;;
20122;SDS011;10222;50.848;4.336;2022-08-01T05:47:16;11.00;;;7.67;;
20122;SDS011;10222;50.848;4.336;2022-08-01T05:49:43;13.43;;;8.13;;
20122;SDS011;10222;50.848;4.336;2022-08-01T05:52:09;11.23;;;7.70;;
20122;SDS011;10222;50.848;4.336;2022-08-01T05:54:35;10.30;;;7.50;;
20122;SDS011;10222;50.848;4.336;2022-08-01T05:57:01;12.40;;;8.30;;
20122;SDS011;10222;50.848;4.336;2022-08-01T05:59:27;13.17;;;8.53;;
20122;SDS011;10222;50.848;4.336;2022-08-01T06:01:53;10.10;;;7.07;;
20122;SDS011;10222;50.848;4.336;2022-08-01T06:04:19;10.87;;;6.70;;
20122;SDS011;10222;50.848;4.336;2022-08-01T06:06:46;11.60;;;7.03;;
20122;SDS011;10222;50.848;4.336;2022-08-01T06:09:12;10.57;;;7.43;;
20122;SDS011;10222;50.848;4.336;2022-08-01T06:11:38;12.07;;;7.00;;
20122;SDS011;10222;50.848;4.336;2022-08-01T06:14:04;8.70;;;6.23;;
20122;SDS011;10222;50.848;4.336;2022-08-01T06:16:30;10.27;;;7.23;;
20122;SDS011;10222;50.848;4.336;2022-08-01T06:18:56;9.90;;;6.60;;
20122;SDS011;10222;50.848;4.336;2022-08-01T06:21:22;10.57;;;7.27;;
20122;SDS011;10222;50.848;4.336;2022-08-01T06:23:48;10.20;;;6.60;;
20122;SDS011;10222;50.848;4.336;2022-08-01T06:26:17;9.75;;;6.00;;
20122;SDS011;10222;50.848;4.336;2022-08-01T06:28:43;8.43;;;6.25;;
20122;SDS011;10222;50.848;4.336;2022-08-01T06:31:09;7.60;;;5.47;;
20122;SDS011;10222;50.848;4.336;2022-08-01T06:33:37;9.10;;;6.47;;
20122;SDS011;10222;50.848;4.336;2022-08-01T06:36:03;9.47;;;5.57;;
20122;SDS011;10222;50.848;4.336;2022-08-01T06:38:29;7.65;;;5.18;;
20122;SDS011;10222;50.848;4.336;2022-08-01T06:40:55;10.05;;;5.55;;
20122;SDS011;10222;50.848;4.336;2022-08-01T06:43:22;8.23;;;5.65;;
20122;SDS011;10222;50.848;4.336;2022-08-01T06:45:48;7.90;;;4.38;;
20122;SDS011;10222;50.848;4.336;2022-08-01T06:48:14;6.40;;;4.15;;
20122;SDS011;10222;50.848;4.336;2022-08-01T06:50:40;7.85;;;4.40;;
20122;SDS011;10222;50.848;4.336;2022-08-01T06:53:06;7.18;;;4.93;;
20122;SDS011;10222;50.848;4.336;2022-08-01T06:55:33;7.33;;;4.37;;
20122;SDS011;10222;50.848;4.336;2022-08-01T06:57:59;6.28;;;4.47;;
20122;SDS011;10222;50.848;4.336;2022-08-01T07:00:25;5.75;;;3.70;;
20122;SDS011;10222;50.848;4.336;2022-08-01T07:02:55;7.13;;;4.25;;
20122;SDS011;10222;50.848;4.336;2022-08-01T07:05:22;5.22;;;3.90;;
20122;SDS011;10222;50.848;4.336;2022-08-01T07:07:48;5.72;;;3.70;;
20122;SDS011;10222;50.848;4.336;2022-08-01T07:10:15;6.30;;;4.00;;
20122;SDS011;10222;50.848;4.336;2022-08-01T07:12:41;5.60;;;3.78;;
20122;SDS011;10222;50.848;4.336;2022-08-01T07:15:07;4.43;;;3.40;;
20122;SDS011;10222;50.848;4.336;2022-08-01T07:17:37;5.13;;;3.78;;
20122;SDS011;10222;50.848;4.336;2022-08-01T07:20:04;4.97;;;3.70;;
20122;SDS011;10222;50.848;4.336;2022-08-01T07:22:30;5.28;;;3.33;;
20122;SDS011;10222;50.848;4.336;2022-08-01T07:24:56;7.70;;;3.75;;
20122;SDS011;10222;50.848;4.336;2022-08-01T07:27:22;4.05;;;2.90;;
20122;SDS011;10222;50.848;4.336;2022-08-01T07:29:48;5.13;;;2.90;;
20122;SDS011;10222;50.848;4.336;2022-08-01T07:32:14;3.17;;;2.25;;
20122;SDS011;10222;50.848;4.336;2022-08-01T07:34:40;3.97;;;2.63;;
20122;SDS011;10222;50.848;4.336;2022-08-01T07:37:06;3.78;;;3.10;;
20122;SDS011;10222;50.848;4.336;2022-08-01T07:39:32;4.80;;;2.90;;
20122;SDS011;10222;50.848;4.336;2022-08-01T07:41:58;4.25;;;2.75;;
20122;SDS011;10222;50.848;4.336;2022-08-01T07:44:24;4.20;;;2.67;;
20122;SDS011;10222;50.848;4.336;2022-08-01T07:46:50;6.18;;;2.75;;
20122;SDS011;10222;50.848;4.336;2022-08-01T07:49:16;2.92;;;2.47;;
20122;SDS011;10222;50.848;4.336;2022-08-01T07:51:42;6.97;;;2.70;;
20122;SDS011;10222;50.848;4.336;2022-08-01T07:54:09;2.50;;;2.30;;
20122;SDS011;10222;50.848;4.336;2022-08-01T07:56:35;2.72;;;2.00;;
20122;SDS011;10222;50.848;4.336;2022-08-01T07:59:01;3.42;;;2.03;;
20122;SDS011;10222;50.848;4.336;2022-08-01T08:01:27;2.22;;;1.80;;
20122;SDS011;10222;50.848;4.336;2022-08-01T08:03:53;2.05;;;1.85;;
20122;SDS011;10222;50.848;4.336;2022-08-01T08:06:19;3.17;;;1.85;;
20122;SDS011;10222;50.848;4.336;2022-08-01T08:08:46;2.15;;;1.80;;
20122;SDS011;10222;50.848;4.336;2022-08-01T08:11:12;3.95;;;2.10;;
20122;SDS011;10222;50.848;4.336;2022-08-01T08:13:39;2.83;;;1.70;;
20122;SDS011;10222;50.848;4.336;2022-08-01T08:16:05;2.67;;;1.50;;
20122;SDS011;10222;50.848;4.336;2022-08-01T08:18:30;2.03;;;1.70;;
20122;SDS011;10222;50.848;4.336;2022-08-01T08:20:56;2.15;;;1.40;;
20122;SDS011;10222;50.848;4.336;2022-08-01T08:23:22;2.72;;;1.38;;
20122;SDS011;10222;50.848;4.336;2022-08-01T08:26:07;4.40;;;1.48;;
20122;SDS011;10222;50.848;4.336;2022-08-01T08:28:33;3.13;;;1.88;;
20122;SDS011;10222;50.848;4.336;2022-08-01T08:30:59;3.53;;;1.75;;
20122;SDS011;10222;50.848;4.336;2022-08-01T08:33:25;1.48;;;1.38;;
20122;SDS011;10222;50.848;4.336;2022-08-01T08:35:51;3.67;;;2.03;;
20122;SDS011;10222;50.848;4.336;2022-08-01T08:38:19;2.70;;;2.03;;
20122;SDS011;10222;50.848;4.336;2022-08-01T08:40:45;2.90;;;2.17;;
20122;SDS011;10222;50.848;4.336;2022-08-01T08:43:11;2.10;;;1.85;;
20122;SDS011;10222;50.848;4.336;2022-08-01T08:45:37;2.50;;;2.15;;
20122;SDS011;10222;50.848;4.336;2022-08-01T08:48:04;2.97;;;2.30;;
20122;SDS011;10222;50.848;4.336;2022-08-01T08:50:31;3.20;;;1.85;;
20122;SDS011;10222;50.848;4.336;2022-08-01T08:52:57;2.50;;;2.30;;
20122;SDS011;10222;50.848;4.336;2022-08-01T08:55:25;2.05;;;1.88;;
20122;SDS011;10222;50.848;4.336;2022-08-01T08:57:52;2.42;;;1.98;;
20122;SDS011;10222;50.848;4.336;2022-08-01T09:00:18;3.17;;;1.98;;
20122;SDS011;10222;50.848;4.336;2022-08-01T09:02:45;2.45;;;1.75;;
20122;SDS011;10222;50.848;4.336;2022-08-01T09:05:11;3.65;;;2.00;;
20122;SDS011;10222;50.848;4.336;2022-08-01T09:07:37;2.60;;;2.13;;
20122;SDS011;10222;50.848;4.336;2022-08-01T09:10:04;2.30;;;1.98;;
20122;SDS011;10222;50.848;4.336;2022-08-01T09:12:30;2.65;;;1.95;;
20122;SDS011;10222;50.848;4.336;2022-08-01T09:14:56;3.55;;;2.00;;
20122;SDS011;10222;50.848;4.336;2022-08-01T09:17:22;2.45;;;2.25;;
20122;SDS011;10222;50.848;4.336;2022-08-01T09:19:49;3.13;;;1.85;;
20122;SDS011;10222;50.848;4.336;2022-08-01T09:22:19;2.88;;;1.90;;
20122;SDS011;10222;50.848;4.336;2022-08-01T09:25:01;2.47;;;2.03;;
20122;SDS011;10222;50.848;4.336;2022-08-01T09:27:27;3.58;;;1.83;;
20122;SDS011;10222;50.848;4.336;2022-08-01T09:29:54;3.03;;;1.38;;
20122;SDS011;10222;50.848;4.336;2022-08-01T09:32:32;5.03;;;1.90;;
20122;SDS011;10222;50.848;4.336;2022-08-01T09:34:58;1.60;;;1.38;;
20122;SDS011;10222;50.848;4.336;2022-08-01T09:37:44;7.15;;;1.83;;
20122;SDS011;10222;50.848;4.336;2022-08-01T09:40:10;1.50;;;1.20;;
20122;SDS011;10222;50.848;4.336;2022-08-01T09:42:36;2.40;;;1.23;;
20122;SDS011;10222;50.848;4.336;2022-08-01T09:45:02;1.67;;;1.08;;
20122;SDS011;10222;50.848;4.336;2022-08-01T09:47:38;2.30;;;1.10;;
20122;SDS011;10222;50.848;4.336;2022-08-01T09:50:04;1.42;;;0.73;;
20122;SDS011;10222;50.848;4.336;2022-08-01T09:52:30;1.60;;;1.00;;
20122;SDS011;10222;50.848;4.336;2022-08-01T09:55:01;1.27;;;1.00;;
20122;SDS011;10222;50.848;4.336;2022-08-01T09:57:27;1.80;;;0.80;;
20122;SDS011;10222;50.848;4.336;2022-08-01T09:59:54;2.40;;;0.98;;
20122;SDS011;10222;50.848;4.336;2022-08-01T10:02:34;3.45;;;1.50;;
20122;SDS011;10222;50.848;4.336;2022-08-01T10:05:02;1.98;;;1.00;;
20122;SDS011;10222;50.848;4.336;2022-08-01T10:07:28;3.08;;;1.00;;
20122;SDS011;10222;50.848;4.336;2022-08-01T10:09:54;0.95;;;0.60;;
20122;SDS011;10222;50.848;4.336;2022-08-01T10:12:21;1.58;;;1.00;;
20122;SDS011;10222;50.848;4.336;2022-08-01T10:14:49;1.60;;;0.80;;
20122;SDS011;10222;50.848;4.336;2022-08-01T10:17:17;1.13;;;0.60;;
20122;SDS011;10222;50.848;4.336;2022-08-01T10:19:44;1.08;;;0.70;;
20122;SDS011;10222;50.848;4.336;2022-08-01T10:22:11;1.13;;;0.70;;
20122;SDS011;10222;50.848;4.336;2022-08-01T10:24:44;1.38;;;0.50;;
20122;SDS011;10222;50.848;4.336;2022-08-01T10:27:13;1.40;;;0.77;;
20122;SDS011;10222;50.848;4.336;2022-08-01T10:29:40;1.70;;;0.63;;
20122;SDS011;10222;50.848;4.336;2022-08-01T10:32:07;0.88;;;0.52;;
20122;SDS011;10222;50.848;4.336;2022-08-01T10:34:34;1.02;;;0.45;;
20122;SDS011;10222;50.848;4.336;2022-08-01T10:37:01;0.93;;;0.40;;
20122;SDS011;10222;50.848;4.336;2022-08-01T10:39:27;1.15;;;0.60;;
20122;SDS011;10222;50.848;4.336;2022-08-01T10:41:55;0.85;;;0.65;;
20122;SDS011;10222;50.848;4.336;2022-08-01T10:44:21;1.25;;;0.60;;
20122;SDS011;10222;50.848;4.336;2022-08-01T10:46:49;1.90;;;0.77;;
20122;SDS011;10222;50.848;4.336;2022-08-01T10:49:16;1.25;;;0.70;;
20122;SDS011;10222;50.848;4.336;2022-08-01T10:51:43;1.30;;;0.70;;
20122;SDS011;10222;50.848;4.336;2022-08-01T10:54:10;1.00;;;0.68;;
20122;SDS011;10222;50.848;4.336;2022-08-01T10:59:06;0.95;;;0.50;;
20122;SDS011;10222;50.848;4.336;2022-08-01T11:01:32;2.80;;;0.75;;
20122;SDS011;10222;50.848;4.336;2022-08-01T11:06:35;0.93;;;0.63;;
20122;SDS011;10222;50.848;4.336;2022-08-01T11:11:31;1.52;;;0.55;;
20122;SDS011;10222;50.848;4.336;2022-08-01T11:16:28;1.20;;;0.70;;
20122;SDS011;10222;50.848;4.336;2022-08-01T11:18:54;2.42;;;0.70;;
20122;SDS011;10222;50.848;4.336;2022-08-01T11:21:20;2.20;;;0.65;;
20122;SDS011;10222;50.848;4.336;2022-08-01T11:23:49;0.95;;;0.73;;
20122;SDS011;10222;50.848;4.336;2022-08-01T11:26:19;2.55;;;0.80;;
20122;SDS011;10222;50.848;4.336;2022-08-01T11:28:46;2.08;;;0.73;;
20122;SDS011;10222;50.848;4.336;2022-08-01T11:31:32;0.80;;;0.70;;
20122;SDS011;10222;50.848;4.336;2022-08-01T11:33:58;0.32;;;0.32;;
20122;SDS011;10222;50.848;4.336;2022-08-01T11:36:24;0.80;;;0.68;;
20122;SDS011;10222;50.848;4.336;2022-08-01T11:41:29;0.52;;;0.50;;
20122;SDS011;10222;50.848;4.336;2022-08-01T11:44:02;0.50;;;0.47;;
20122;SDS011;10222;50.848;4.336;2022-08-01T11:54:26;1.13;;;0.50;;
20122;SDS011;10222;50.848;4.336;2022-08-01T11:56:54;3.08;;;0.77;;
20122;SDS011;10222;50.848;4.336;2022-08-01T11:59:21;4.05;;;1.05;;
20122;SDS011;10222;50.848;4.336;2022-08-01T12:01:47;2.10;;;0.60;;
20122;SDS011;10222;50.848;4.336;2022-08-01T12:04:13;5.60;;;0.80;;
20122;SDS011;10222;50.848;4.336;2022-08-01T12:06:39;1.27;;;0.70;;
20122;SDS011;10222;50.848;4.336;2022-08-01T12:09:23;0.88;;;0.50;;
20122;SDS011;10222;50.848;4.336;2022-08-01T12:11:49;0.60;;;0.60;;
20122;SDS011;10222;50.848;4.336;2022-08-01T12:14:17;1.83;;;0.80;;
20122;SDS011;10222;50.848;4.336;2022-08-01T12:16:53;1.55;;;0.82;;
20122;SDS011;10222;50.848;4.336;2022-08-01T12:19:20;3.90;;;2.25;;
20122;SDS011;10222;50.848;4.336;2022-08-01T12:22:04;1.92;;;0.77;;
20122;SDS011;10222;50.848;4.336;2022-08-01T12:24:30;4.57;;;1.10;;
20122;SDS011;10222;50.848;4.336;2022-08-01T12:26:56;1.58;;;0.63;;
20122;SDS011;10222;50.848;4.336;2022-08-01T12:32:04;1.30;;;0.77;;
20122;SDS011;10222;50.848;4.336;2022-08-01T12:34:30;1.45;;;0.60;;
20122;SDS011;10222;50.848;4.336;2022-08-01T12:36:59;1.88;;;0.70;;
20122;SDS011;10222;50.848;4.336;2022-08-01T12:39:29;1.25;;;1.00;;
20122;SDS011;10222;50.848;4.336;2022-08-01T12:41:55;1.10;;;0.80;;
20122;SDS011;10222;50.848;4.336;2022-08-01T12:44:21;2.25;;;0.80;;
20122;SDS011;10222;50.848;4.336;2022-08-01T12:46:47;1.90;;;0.80;;
20122;SDS011;10222;50.848;4.336;2022-08-01T12:49:13;3.17;;;0.70;;
20122;SDS011;10222;50.848;4.336;2022-08-01T12:51:40;2.08;;;0.90;;
20122;SDS011;10222;50.848;4.336;2022-08-01T12:54:06;1.08;;;0.77;;
20122;SDS011;10222;50.848;4.336;2022-08-01T12:56:35;1.73;;;1.02;;
20122;SDS011;10222;50.848;4.336;2022-08-01T12:59:01;3.08;;;0.93;;
20122;SDS011;10222;50.848;4.336;2022-08-01T13:01:27;1.15;;;0.82;;
20122;SDS011;10222;50.848;4.336;2022-08-01T13:03:57;2.20;;;0.75;;
20122;SDS011;10222;50.848;4.336;2022-08-01T13:06:23;2.92;;;0.75;;
20122;SDS011;10222;50.848;4.336;2022-08-01T13:08:54;2.03;;;0.63;;
20122;SDS011;10222;50.848;4.336;2022-08-01T13:11:20;2.10;;;0.88;;
20122;SDS011;10222;50.848;4.336;2022-08-01T13:13:47;1.63;;;0.70;;
20122;SDS011;10222;50.848;4.336;2022-08-01T13:16:14;0.90;;;0.65;;
20122;SDS011;10222;50.848;4.336;2022-08-01T13:18:41;1.60;;;0.80;;
20122;SDS011;10222;50.848;4.336;2022-08-01T13:23:42;1.55;;;0.80;;
20122;SDS011;10222;50.848;4.336;2022-08-01T13:26:08;1.55;;;0.65;;
20122;SDS011;10222;50.848;4.336;2022-08-01T13:28:34;1.00;;;0.90;;
20122;SDS011;10222;50.848;4.336;2022-08-01T13:31:04;2.90;;;0.70;;
20122;SDS011;10222;50.848;4.336;2022-08-01T13:33:44;2.55;;;0.60;;
20122;SDS011;10222;50.848;4.336;2022-08-01T13:36:11;1.55;;;0.60;;
20122;SDS011;10222;50.848;4.336;2022-08-01T13:38:37;1.52;;;0.80;;
20122;SDS011;10222;50.848;4.336;2022-08-01T13:41:22;1.20;;;0.80;;
20122;SDS011;10222;50.848;4.336;2022-08-01T13:43:48;2.25;;;0.85;;
20122;SDS011;10222;50.848;4.336;2022-08-01T13:46:14;0.55;;;0.55;;
20122;SDS011;10222;50.848;4.336;2022-08-01T13:48:40;1.13;;;0.65;;
20122;SDS011;10222;50.848;4.336;2022-08-01T13:51:06;3.67;;;0.70;;
20122;SDS011;10222;50.848;4.336;2022-08-01T13:53:32;2.63;;;0.75;;
20122;SDS011;10222;50.848;4.336;2022-08-01T13:55:58;1.17;;;0.65;;
20122;SDS011;10222;50.848;4.336;2022-08-01T13:58:24;1.10;;;0.70;;
20122;SDS011;10222;50.848;4.336;2022-08-01T14:00:50;0.98;;;0.80;;
20122;SDS011;10222;50.848;4.336;2022-08-01T14:03:16;2.92;;;0.90;;
20122;SDS011;10222;50.848;4.336;2022-08-01T14:05:43;2.15;;;0.90;;
20122;SDS011;10222;50.848;4.336;2022-08-01T14:08:09;2.17;;;0.60;;
20122;SDS011;10222;50.848;4.336;2022-08-01T14:10:35;0.85;;;0.70;;
20122;SDS011;10222;50.848;4.336;2022-08-01T14:13:01;2.20;;;0.73;;
20122;SDS011;10222;50.848;4.336;2022-08-01T14:15:27;2.70;;;0.73;;
20122;SDS011;10222;50.848;4.336;2022-08-01T14:17:53;1.92;;;0.85;;
20122;SDS011;10222;50.848;4.336;2022-08-01T14:20:19;1.08;;;0.60;;
20122;SDS011;10222;50.848;4.336;2022-08-01T14:22:46;0.98;;;0.60;;
20122;SDS011;10222;50.848;4.336;2022-08-01T14:25:12;1.77;;;0.95;;
20122;SDS011;10222;50.848;4.336;2022-08-01T14:27:38;2.17;;;0.80;;
20122;SDS011;10222;50.848;4.336;2022-08-01T14:30:06;3.10;;;0.60;;
20122;SDS011;10222;50.848;4.336;2022-08-01T14:32:32;1.83;;;0.80;;
20122;SDS011;10222;50.848;4.336;2022-08-01T14:35:02;1.38;;;0.50;;
20122;SDS011;10222;50.848;4.336;2022-08-01T14:37:28;1.38;;;0.82;;
20122;SDS011;10222;50.848;4.336;2022-08-01T14:39:58;3.92;;;0.70;;
20122;SDS011;10222;50.848;4.336;2022-08-01T14:42:24;1.75;;;0.80;;
20122;SDS011;10222;50.848;4.336;2022-08-01T14:44:50;2.20;;;0.63;;
20122;SDS011;10222;50.848;4.336;2022-08-01T14:47:16;1.88;;;0.75;;
20122;SDS011;10222;50.848;4.336;2022-08-01T14:49:42;2.92;;;1.00;;
20122;SDS011;10222;50.848;4.336;2022-08-01T14:52:08;0.85;;;0.40;;
20122;SDS011;10222;50.848;4.336;2022-08-01T14:54:34;1.50;;;0.95;;
20122;SDS011;10222;50.848;4.336;2022-08-01T14:57:00;2.78;;;0.88;;
20122;SDS011;10222;50.848;4.336;2022-08-01T14:59:26;2.17;;;0.90;;
20122;SDS011;10222;50.848;4.336;2022-08-01T15:01:52;1.13;;;0.75;;
20122;SDS011;10222;50.848;4.336;2022-08-01T15:04:18;1.92;;;0.75;;
20122;SDS011;10222;50.848;4.336;2022-08-01T15:06:44;1.27;;;0.80;;
20122;SDS011;10222;50.848;4.336;2022-08-01T15:09:11;1.02;;;0.60;;
20122;SDS011;10222;50.848;4.336;2022-08-01T15:11:37;2.05;;;0.60;;
20122;SDS011;10222;50.848;4.336;2022-08-01T15:14:03;1.60;;;0.63;;
20122;SDS011;10222;50.848;4.336;2022-08-01T15:16:47;1.70;;;0.73;;
20122;SDS011;10222;50.848;4.336;2022-08-01T15:19:13;1.20;;;0.60;;
20122;SDS011;10222;50.848;4.336;2022-08-01T15:21:40;1.75;;;0.70;;
20122;SDS011;10222;50.848;4.336;2022-08-01T15:24:06;1.13;;;0.70;;